sensor_id;sensor_type;location;lat;lon;timestamp;P1;durP1;ratioP1;P2;durP2;ratioP2
77520;SDS011;66633;47.628;19.158;2023-03-11T00:02:18;2.00;;;0.70;;
77520;SDS011;66633;47.628;19.158;2023-03-11T00:04:44;1.05;;;0.70;;
77520;SDS011;66633;47.628;19.158;2023-03-11T00:07:09;1.50;;;0.60;;
77520;SDS011;66633;47.628;19.158;2023-03-11T00:09:35;1.65;;;0.57;;
77520;SDS011;66633;47.628;19.158;2023-03-11T00:12:01;1.65;;;0.68;;
77520;SDS011;66633;47.628;19.158;2023-03-11T00:14:27;1.50;;;0.70;;
77520;SDS011;66633;47.628;19.158;2023-03-11T00:16:52;1.90;;;0.70;;
77520;SDS011;66633;47.628;19.158;2023-03-11T00:19:17;2.70;;;0.60;;
77520;SDS011;66633;47.628;19.158;2023-03-11T00:21:43;1.50;;;0.63;;
77520;SDS011;66633;47.628;19.158;2023-03-11T00:24:08;1.55;;;0.55;;
77520;SDS011;66633;47.628;19.158;2023-03-11T00:26:33;2.20;;;0.80;;
77520;SDS011;66633;47.628;19.158;2023-03-11T00:28:59;1.10;;;0.50;;
77520;SDS011;66633;47.628;19.158;2023-03-11T00:31:24;1.13;;;0.50;;
77520;SDS011;66633;47.628;19.158;2023-03-11T00:33:50;2.03;;;0.60;;
77520;SDS011;66633;47.628;19.158;2023-03-11T00:36:21;2.05;;;0.80;;
77520;SDS011;66633;47.628;19.158;2023-03-11T00:38:47;2.90;;;0.90;;
77520;SDS011;66633;47.628;19.158;2023-03-11T00:41:12;1.90;;;0.60;;
77520;SDS011;66633;47.628;19.158;2023-03-11T00:43:37;1.15;;;0.55;;
77520;SDS011;66633;47.628;19.158;2023-03-11T00:46:02;0.85;;;0.60;;
77520;SDS011;66633;47.628;19.158;2023-03-11T00:48:28;1.95;;;0.80;;
77520;SDS011;66633;47.628;19.158;2023-03-11T00:50:54;0.73;;;0.50;;
77520;SDS011;66633;47.628;19.158;2023-03-11T00:53:19;0.40;;;0.40;;
77520;SDS011;66633;47.628;19.158;2023-03-11T00:55:44;1.43;;;0.50;;
77520;SDS011;66633;47.628;19.158;2023-03-11T00:58:10;1.03;;;0.50;;
77520;SDS011;66633;47.628;19.158;2023-03-11T01:00:35;0.88;;;0.32;;
77520;SDS011;66633;47.628;19.158;2023-03-11T01:03:01;3.30;;;0.70;;
77520;SDS011;66633;47.628;19.158;2023-03-11T01:05:28;1.65;;;0.63;;
77520;SDS011;66633;47.628;19.158;2023-03-11T01:07:53;1.67;;;0.45;;
77520;SDS011;66633;47.628;19.158;2023-03-11T01:10:19;0.85;;;0.40;;
77520;SDS011;66633;47.628;19.158;2023-03-11T01:12:44;1.00;;;0.38;;
77520;SDS011;66633;47.628;19.158;2023-03-11T01:15:23;1.63;;;0.60;;
77520;SDS011;66633;47.628;19.158;2023-03-11T01:17:49;2.20;;;0.55;;
77520;SDS011;66633;47.628;19.158;2023-03-11T01:20:14;3.38;;;0.65;;
77520;SDS011;66633;47.628;19.158;2023-03-11T01:22:40;3.13;;;0.90;;
77520;SDS011;66633;47.628;19.158;2023-03-11T01:25:05;3.03;;;0.70;;
77520;SDS011;66633;47.628;19.158;2023-03-11T01:27:30;2.10;;;0.80;;
77520;SDS011;66633;47.628;19.158;2023-03-11T01:29:55;2.75;;;0.70;;
77520;SDS011;66633;47.628;19.158;2023-03-11T01:32:21;2.10;;;0.67;;
77520;SDS011;66633;47.628;19.158;2023-03-11T01:34:46;1.67;;;0.60;;
77520;SDS011;66633;47.628;19.158;2023-03-11T01:37:11;3.43;;;1.43;;
77520;SDS011;66633;47.628;19.158;2023-03-11T01:39:36;1.73;;;0.70;;
77520;SDS011;66633;47.628;19.158;2023-03-11T01:42:02;2.13;;;0.70;;
77520;SDS011;66633;47.628;19.158;2023-03-11T01:44:27;2.00;;;0.55;;
77520;SDS011;66633;47.628;19.158;2023-03-11T01:49:18;4.50;;;0.60;;
77520;SDS011;66633;47.628;19.158;2023-03-11T01:51:45;1.90;;;0.70;;
77520;SDS011;66633;47.628;19.158;2023-03-11T01:54:13;2.28;;;0.60;;
77520;SDS011;66633;47.628;19.158;2023-03-11T01:56:40;2.28;;;0.98;;
77520;SDS011;66633;47.628;19.158;2023-03-11T01:59:06;2.40;;;0.60;;
77520;SDS011;66633;47.628;19.158;2023-03-11T02:01:32;2.90;;;0.73;;
77520;SDS011;66633;47.628;19.158;2023-03-11T02:03:58;2.65;;;0.73;;
77520;SDS011;66633;47.628;19.158;2023-03-11T02:06:23;2.40;;;0.80;;
77520;SDS011;66633;47.628;19.158;2023-03-11T02:08:49;3.67;;;0.70;;
77520;SDS011;66633;47.628;19.158;2023-03-11T02:11:19;2.65;;;0.60;;
77520;SDS011;66633;47.628;19.158;2023-03-11T02:13:46;2.55;;;0.70;;
77520;SDS011;66633;47.628;19.158;2023-03-11T02:16:12;3.45;;;0.60;;
77520;SDS011;66633;47.628;19.158;2023-03-11T02:18:38;1.00;;;0.52;;
77520;SDS011;66633;47.628;19.158;2023-03-11T02:21:16;2.55;;;0.90;;
77520;SDS011;66633;47.628;19.158;2023-03-11T02:26:32;1.25;;;0.65;;
77520;SDS011;66633;47.628;19.158;2023-03-11T02:28:59;2.33;;;0.60;;
77520;SDS011;66633;47.628;19.158;2023-03-11T02:31:25;2.40;;;0.65;;
77520;SDS011;66633;47.628;19.158;2023-03-11T02:33:52;3.35;;;0.90;;
77520;SDS011;66633;47.628;19.158;2023-03-11T02:36:35;4.70;;;0.70;;
77520;SDS011;66633;47.628;19.158;2023-03-11T02:39:01;2.33;;;0.80;;
77520;SDS011;66633;47.628;19.158;2023-03-11T02:41:27;2.85;;;0.63;;
77520;SDS011;66633;47.628;19.158;2023-03-11T02:43:52;2.95;;;0.70;;
77520;SDS011;66633;47.628;19.158;2023-03-11T02:46:18;2.45;;;0.60;;
77520;SDS011;66633;47.628;19.158;2023-03-11T02:48:44;5.28;;;0.73;;
77520;SDS011;66633;47.628;19.158;2023-03-11T02:51:09;3.33;;;0.90;;
77520;SDS011;66633;47.628;19.158;2023-03-11T02:53:38;4.83;;;1.60;;
77520;SDS011;66633;47.628;19.158;2023-03-11T02:56:04;2.75;;;0.70;;
77520;SDS011;66633;47.628;19.158;2023-03-11T02:58:30;2.88;;;1.10;;
77520;SDS011;66633;47.628;19.158;2023-03-11T03:00:55;4.68;;;0.70;;
77520;SDS011;66633;47.628;19.158;2023-03-11T03:03:20;3.50;;;0.90;;
77520;SDS011;66633;47.628;19.158;2023-03-11T03:05:46;2.43;;;0.80;;
77520;SDS011;66633;47.628;19.158;2023-03-11T03:08:11;1.17;;;0.60;;
77520;SDS011;66633;47.628;19.158;2023-03-11T03:10:36;2.30;;;0.85;;
77520;SDS011;66633;47.628;19.158;2023-03-11T03:13:02;3.80;;;0.90;;
77520;SDS011;66633;47.628;19.158;2023-03-11T03:15:27;2.95;;;0.90;;
77520;SDS011;66633;47.628;19.158;2023-03-11T03:17:53;3.65;;;0.90;;
77520;SDS011;66633;47.628;19.158;2023-03-11T03:20:18;1.77;;;0.70;;
77520;SDS011;66633;47.628;19.158;2023-03-11T03:22:46;2.30;;;0.60;;
77520;SDS011;66633;47.628;19.158;2023-03-11T03:25:12;1.65;;;0.65;;
77520;SDS011;66633;47.628;19.158;2023-03-11T03:27:37;1.73;;;0.63;;
77520;SDS011;66633;47.628;19.158;2023-03-11T03:30:03;1.48;;;0.60;;
77520;SDS011;66633;47.628;19.158;2023-03-11T03:32:28;3.42;;;0.93;;
77520;SDS011;66633;47.628;19.158;2023-03-11T03:34:54;2.50;;;0.75;;
77520;SDS011;66633;47.628;19.158;2023-03-11T03:37:23;3.00;;;0.70;;
77520;SDS011;66633;47.628;19.158;2023-03-11T03:39:48;3.05;;;0.70;;
77520;SDS011;66633;47.628;19.158;2023-03-11T03:42:13;1.87;;;0.80;;
77520;SDS011;66633;47.628;19.158;2023-03-11T03:44:38;1.37;;;0.60;;
77520;SDS011;66633;47.628;19.158;2023-03-11T03:47:04;2.88;;;0.60;;
77520;SDS011;66633;47.628;19.158;2023-03-11T03:49:29;2.75;;;0.73;;
77520;SDS011;66633;47.628;19.158;2023-03-11T03:51:54;1.77;;;0.80;;
77520;SDS011;66633;47.628;19.158;2023-03-11T03:54:20;5.03;;;1.10;;
77520;SDS011;66633;47.628;19.158;2023-03-11T03:56:45;2.30;;;0.90;;
77520;SDS011;66633;47.628;19.158;2023-03-11T03:59:10;3.90;;;0.83;;
77520;SDS011;66633;47.628;19.158;2023-03-11T04:01:36;2.25;;;0.77;;
77520;SDS011;66633;47.628;19.158;2023-03-11T04:04:01;2.03;;;0.70;;
77520;SDS011;66633;47.628;19.158;2023-03-11T04:06:26;1.40;;;0.60;;
77520;SDS011;66633;47.628;19.158;2023-03-11T04:08:52;2.10;;;0.65;;
77520;SDS011;66633;47.628;19.158;2023-03-11T04:11:18;4.80;;;0.60;;
77520;SDS011;66633;47.628;19.158;2023-03-11T04:13:43;2.58;;;0.80;;
77520;SDS011;66633;47.628;19.158;2023-03-11T04:16:09;4.05;;;0.70;;
77520;SDS011;66633;47.628;19.158;2023-03-11T04:18:34;3.63;;;0.80;;
77520;SDS011;66633;47.628;19.158;2023-03-11T04:21:03;2.20;;;0.57;;
77520;SDS011;66633;47.628;19.158;2023-03-11T04:23:28;1.08;;;0.60;;
77520;SDS011;66633;47.628;19.158;2023-03-11T04:25:53;1.90;;;0.60;;
77520;SDS011;66633;47.628;19.158;2023-03-11T04:28:19;2.47;;;0.90;;
77520;SDS011;66633;47.628;19.158;2023-03-11T04:30:44;1.73;;;0.77;;
77520;SDS011;66633;47.628;19.158;2023-03-11T04:33:09;1.67;;;0.80;;
77520;SDS011;66633;47.628;19.158;2023-03-11T04:35:36;2.25;;;0.85;;
77520;SDS011;66633;47.628;19.158;2023-03-11T04:38:01;4.43;;;0.82;;
77520;SDS011;66633;47.628;19.158;2023-03-11T04:40:27;3.70;;;0.80;;
77520;SDS011;66633;47.628;19.158;2023-03-11T04:42:52;2.58;;;0.80;;
77520;SDS011;66633;47.628;19.158;2023-03-11T04:45:17;4.70;;;1.08;;
77520;SDS011;66633;47.628;19.158;2023-03-11T04:47:45;2.45;;;0.52;;
77520;SDS011;66633;47.628;19.158;2023-03-11T04:50:11;5.47;;;0.75;;
77520;SDS011;66633;47.628;19.158;2023-03-11T04:52:36;2.30;;;0.80;;
77520;SDS011;66633;47.628;19.158;2023-03-11T04:55:01;2.97;;;0.90;;
77520;SDS011;66633;47.628;19.158;2023-03-11T04:57:26;6.27;;;1.20;;
77520;SDS011;66633;47.628;19.158;2023-03-11T04:59:52;4.07;;;1.02;;
77520;SDS011;66633;47.628;19.158;2023-03-11T05:02:17;2.40;;;0.60;;
77520;SDS011;66633;47.628;19.158;2023-03-11T05:04:42;3.40;;;0.60;;
77520;SDS011;66633;47.628;19.158;2023-03-11T05:07:09;6.20;;;1.25;;
77520;SDS011;66633;47.628;19.158;2023-03-11T05:09:34;5.30;;;1.13;;
77520;SDS011;66633;47.628;19.158;2023-03-11T05:12:00;7.93;;;1.13;;
77520;SDS011;66633;47.628;19.158;2023-03-11T05:14:25;9.35;;;1.30;;
77520;SDS011;66633;47.628;19.158;2023-03-11T05:16:51;3.72;;;0.80;;
77520;SDS011;66633;47.628;19.158;2023-03-11T05:22:11;2.42;;;0.85;;
77520;SDS011;66633;47.628;19.158;2023-03-11T05:24:36;3.95;;;0.77;;
77520;SDS011;66633;47.628;19.158;2023-03-11T05:27:02;6.82;;;1.00;;
77520;SDS011;66633;47.628;19.158;2023-03-11T05:29:28;3.45;;;0.80;;
77520;SDS011;66633;47.628;19.158;2023-03-11T05:31:53;3.42;;;1.45;;
77520;SDS011;66633;47.628;19.158;2023-03-11T05:34:19;3.55;;;1.10;;
77520;SDS011;66633;47.628;19.158;2023-03-11T05:36:44;3.42;;;0.82;;
77520;SDS011;66633;47.628;19.158;2023-03-11T05:39:09;4.03;;;0.80;;
77520;SDS011;66633;47.628;19.158;2023-03-11T05:41:34;1.70;;;0.60;;
77520;SDS011;66633;47.628;19.158;2023-03-11T05:44:00;2.72;;;0.80;;
77520;SDS011;66633;47.628;19.158;2023-03-11T05:46:25;4.78;;;1.20;;
77520;SDS011;66633;47.628;19.158;2023-03-11T05:48:50;4.28;;;0.80;;
77520;SDS011;66633;47.628;19.158;2023-03-11T05:51:16;2.40;;;0.70;;
77520;SDS011;66633;47.628;19.158;2023-03-11T05:53:42;2.30;;;0.97;;
77520;SDS011;66633;47.628;19.158;2023-03-11T05:56:12;1.30;;;0.60;;
77520;SDS011;66633;47.628;19.158;2023-03-11T05:58:37;3.20;;;0.82;;
77520;SDS011;66633;47.628;19.158;2023-03-11T06:01:06;2.70;;;0.90;;
77520;SDS011;66633;47.628;19.158;2023-03-11T06:03:31;2.83;;;0.70;;
77520;SDS011;66633;47.628;19.158;2023-03-11T06:05:56;4.73;;;1.13;;
77520;SDS011;66633;47.628;19.158;2023-03-11T06:08:22;9.17;;;1.30;;
77520;SDS011;66633;47.628;19.158;2023-03-11T06:10:47;2.67;;;0.70;;
77520;SDS011;66633;47.628;19.158;2023-03-11T06:13:13;3.67;;;1.23;;
77520;SDS011;66633;47.628;19.158;2023-03-11T06:15:38;2.80;;;0.90;;
77520;SDS011;66633;47.628;19.158;2023-03-11T06:18:03;2.27;;;0.90;;
77520;SDS011;66633;47.628;19.158;2023-03-11T06:20:29;3.70;;;1.10;;
77520;SDS011;66633;47.628;19.158;2023-03-11T06:22:54;1.98;;;0.70;;
77520;SDS011;66633;47.628;19.158;2023-03-11T06:25:20;2.70;;;0.73;;
77520;SDS011;66633;47.628;19.158;2023-03-11T06:27:49;1.95;;;0.80;;
77520;SDS011;66633;47.628;19.158;2023-03-11T06:30:15;2.47;;;0.98;;
77520;SDS011;66633;47.628;19.158;2023-03-11T06:32:46;2.33;;;0.80;;
77520;SDS011;66633;47.628;19.158;2023-03-11T06:35:12;3.47;;;1.00;;
77520;SDS011;66633;47.628;19.158;2023-03-11T06:37:37;1.63;;;0.90;;
77520;SDS011;66633;47.628;19.158;2023-03-11T06:40:07;2.53;;;0.82;;
77520;SDS011;66633;47.628;19.158;2023-03-11T06:42:32;3.05;;;1.10;;
77520;SDS011;66633;47.628;19.158;2023-03-11T06:44:58;3.90;;;1.50;;
77520;SDS011;66633;47.628;19.158;2023-03-11T06:47:23;2.77;;;0.90;;
77520;SDS011;66633;47.628;19.158;2023-03-11T06:49:51;3.17;;;0.93;;
77520;SDS011;66633;47.628;19.158;2023-03-11T06:52:17;2.83;;;1.20;;
77520;SDS011;66633;47.628;19.158;2023-03-11T06:54:42;1.55;;;0.80;;
77520;SDS011;66633;47.628;19.158;2023-03-11T06:57:08;3.28;;;0.90;;
77520;SDS011;66633;47.628;19.158;2023-03-11T06:59:34;2.08;;;0.75;;
77520;SDS011;66633;47.628;19.158;2023-03-11T07:01:59;1.77;;;0.80;;
77520;SDS011;66633;47.628;19.158;2023-03-11T07:04:25;3.55;;;1.13;;
77520;SDS011;66633;47.628;19.158;2023-03-11T07:06:50;2.42;;;0.70;;
77520;SDS011;66633;47.628;19.158;2023-03-11T07:09:15;2.80;;;0.80;;
77520;SDS011;66633;47.628;19.158;2023-03-11T07:11:40;1.27;;;0.80;;
77520;SDS011;66633;47.628;19.158;2023-03-11T07:14:06;2.33;;;1.00;;
77520;SDS011;66633;47.628;19.158;2023-03-11T07:16:31;3.38;;;0.90;;
77520;SDS011;66633;47.628;19.158;2023-03-11T07:18:57;2.60;;;0.90;;
77520;SDS011;66633;47.628;19.158;2023-03-11T07:21:25;2.67;;;0.80;;
77520;SDS011;66633;47.628;19.158;2023-03-11T07:23:51;1.83;;;0.82;;
77520;SDS011;66633;47.628;19.158;2023-03-11T07:26:16;2.33;;;1.05;;
77520;SDS011;66633;47.628;19.158;2023-03-11T07:28:42;1.58;;;0.70;;
77520;SDS011;66633;47.628;19.158;2023-03-11T07:31:09;4.05;;;1.00;;
77520;SDS011;66633;47.628;19.158;2023-03-11T07:33:34;2.08;;;0.90;;
77520;SDS011;66633;47.628;19.158;2023-03-11T07:36:03;2.72;;;0.77;;
77520;SDS011;66633;47.628;19.158;2023-03-11T07:38:29;1.92;;;1.00;;
77520;SDS011;66633;47.628;19.158;2023-03-11T07:40:57;3.20;;;0.93;;
77520;SDS011;66633;47.628;19.158;2023-03-11T07:43:23;2.78;;;1.00;;
77520;SDS011;66633;47.628;19.158;2023-03-11T07:45:48;6.57;;;1.10;;
77520;SDS011;66633;47.628;19.158;2023-03-11T07:48:14;5.60;;;1.90;;
77520;SDS011;66633;47.628;19.158;2023-03-11T07:50:39;4.25;;;2.00;;
77520;SDS011;66633;47.628;19.158;2023-03-11T07:53:05;4.53;;;1.23;;
77520;SDS011;66633;47.628;19.158;2023-03-11T07:55:30;4.72;;;1.55;;
77520;SDS011;66633;47.628;19.158;2023-03-11T07:57:55;3.42;;;1.20;;
77520;SDS011;66633;47.628;19.158;2023-03-11T08:00:20;2.90;;;1.17;;
77520;SDS011;66633;47.628;19.158;2023-03-11T08:02:46;2.92;;;1.10;;
77520;SDS011;66633;47.628;19.158;2023-03-11T08:05:11;8.55;;;3.00;;
77520;SDS011;66633;47.628;19.158;2023-03-11T08:07:37;3.88;;;1.08;;
77520;SDS011;66633;47.628;19.158;2023-03-11T08:10:02;2.97;;;1.20;;
77520;SDS011;66633;47.628;19.158;2023-03-11T08:12:28;3.47;;;0.95;;
77520;SDS011;66633;47.628;19.158;2023-03-11T08:14:53;3.53;;;1.30;;
77520;SDS011;66633;47.628;19.158;2023-03-11T08:17:18;6.67;;;2.13;;
77520;SDS011;66633;47.628;19.158;2023-03-11T08:19:44;3.67;;;1.45;;
77520;SDS011;66633;47.628;19.158;2023-03-11T08:22:09;3.88;;;1.08;;
77520;SDS011;66633;47.628;19.158;2023-03-11T08:24:34;6.10;;;2.10;;
77520;SDS011;66633;47.628;19.158;2023-03-11T08:27:00;2.67;;;0.90;;
77520;SDS011;66633;47.628;19.158;2023-03-11T08:29:25;4.57;;;1.00;;
77520;SDS011;66633;47.628;19.158;2023-03-11T08:31:51;3.05;;;1.00;;
77520;SDS011;66633;47.628;19.158;2023-03-11T08:34:16;2.60;;;0.80;;
77520;SDS011;66633;47.628;19.158;2023-03-11T08:36:42;1.88;;;0.95;;
77520;SDS011;66633;47.628;19.158;2023-03-11T08:39:07;4.00;;;1.20;;
77520;SDS011;66633;47.628;19.158;2023-03-11T08:41:32;2.60;;;1.02;;
77520;SDS011;66633;47.628;19.158;2023-03-11T08:43:58;4.07;;;1.70;;
77520;SDS011;66633;47.628;19.158;2023-03-11T08:46:24;4.63;;;1.48;;
77520;SDS011;66633;47.628;19.158;2023-03-11T08:51:53;5.25;;;1.35;;
77520;SDS011;66633;47.628;19.158;2023-03-11T08:54:18;3.37;;;1.27;;
77520;SDS011;66633;47.628;19.158;2023-03-11T08:56:43;7.68;;;1.70;;
77520;SDS011;66633;47.628;19.158;2023-03-11T08:59:09;7.18;;;1.00;;
77520;SDS011;66633;47.628;19.158;2023-03-11T09:01:34;5.53;;;1.20;;
77520;SDS011;66633;47.628;19.158;2023-03-11T09:04:00;3.03;;;1.10;;
77520;SDS011;66633;47.628;19.158;2023-03-11T09:06:25;6.10;;;0.90;;
77520;SDS011;66633;47.628;19.158;2023-03-11T09:08:50;2.57;;;1.10;;
77520;SDS011;66633;47.628;19.158;2023-03-11T09:11:16;3.85;;;1.00;;
77520;SDS011;66633;47.628;19.158;2023-03-11T09:13:42;7.25;;;1.65;;
77520;SDS011;66633;47.628;19.158;2023-03-11T09:16:08;2.85;;;1.00;;
77520;SDS011;66633;47.628;19.158;2023-03-11T09:18:36;5.60;;;1.10;;
77520;SDS011;66633;47.628;19.158;2023-03-11T09:21:01;5.10;;;1.87;;
77520;SDS011;66633;47.628;19.158;2023-03-11T09:23:26;4.83;;;1.17;;
77520;SDS011;66633;47.628;19.158;2023-03-11T09:25:51;6.82;;;1.55;;
77520;SDS011;66633;47.628;19.158;2023-03-11T09:28:17;4.07;;;1.47;;
77520;SDS011;66633;47.628;19.158;2023-03-11T09:30:42;6.97;;;1.30;;
77520;SDS011;66633;47.628;19.158;2023-03-11T09:33:07;3.53;;;1.10;;
77520;SDS011;66633;47.628;19.158;2023-03-11T09:35:33;7.20;;;1.13;;
77520;SDS011;66633;47.628;19.158;2023-03-11T09:37:58;3.65;;;1.25;;
77520;SDS011;66633;47.628;19.158;2023-03-11T09:40:24;6.50;;;1.60;;
77520;SDS011;66633;47.628;19.158;2023-03-11T09:43:02;8.05;;;1.50;;
77520;SDS011;66633;47.628;19.158;2023-03-11T09:45:31;5.55;;;1.48;;
77520;SDS011;66633;47.628;19.158;2023-03-11T09:50:29;2.90;;;1.00;;
77520;SDS011;66633;47.628;19.158;2023-03-11T09:53:14;6.55;;;1.65;;
77520;SDS011;66633;47.628;19.158;2023-03-11T09:55:47;3.67;;;1.30;;
77520;SDS011;66633;47.628;19.158;2023-03-11T10:00:56;7.50;;;1.17;;
77520;SDS011;66633;47.628;19.158;2023-03-11T10:03:24;7.83;;;1.43;;
77520;SDS011;66633;47.628;19.158;2023-03-11T10:05:51;5.53;;;1.02;;
77520;SDS011;66633;47.628;19.158;2023-03-11T10:08:22;3.75;;;1.33;;
77520;SDS011;66633;47.628;19.158;2023-03-11T10:10:55;5.63;;;1.15;;
77520;SDS011;66633;47.628;19.158;2023-03-11T10:13:27;5.63;;;1.70;;
77520;SDS011;66633;47.628;19.158;2023-03-11T10:15:59;3.22;;;1.27;;
77520;SDS011;66633;47.628;19.158;2023-03-11T10:23:26;4.13;;;1.33;;
77520;SDS011;66633;47.628;19.158;2023-03-11T10:26:11;5.05;;;1.65;;
77520;SDS011;66633;47.628;19.158;2023-03-11T10:28:39;7.75;;;1.40;;
77520;SDS011;66633;47.628;19.158;2023-03-11T10:31:17;4.50;;;1.63;;
77520;SDS011;66633;47.628;19.158;2023-03-11T10:34:08;5.63;;;1.25;;
77520;SDS011;66633;47.628;19.158;2023-03-11T10:36:41;4.95;;;1.48;;
77520;SDS011;66633;47.628;19.158;2023-03-11T10:39:08;2.28;;;1.08;;
77520;SDS011;66633;47.628;19.158;2023-03-11T10:44:03;5.82;;;1.60;;
77520;SDS011;66633;47.628;19.158;2023-03-11T10:46:30;4.05;;;1.40;;
77520;SDS011;66633;47.628;19.158;2023-03-11T10:48:55;5.32;;;1.45;;
77520;SDS011;66633;47.628;19.158;2023-03-11T10:51:22;11.13;;;3.55;;
77520;SDS011;66633;47.628;19.158;2023-03-11T10:53:51;10.27;;;3.22;;
77520;SDS011;66633;47.628;19.158;2023-03-11T10:58:51;3.00;;;1.10;;
77520;SDS011;66633;47.628;19.158;2023-03-11T11:01:17;2.13;;;0.82;;
77520;SDS011;66633;47.628;19.158;2023-03-11T11:03:43;2.17;;;1.00;;
77520;SDS011;66633;47.628;19.158;2023-03-11T11:06:24;3.03;;;1.20;;
77520;SDS011;66633;47.628;19.158;2023-03-11T11:09:02;4.32;;;1.20;;
77520;SDS011;66633;47.628;19.158;2023-03-11T11:11:27;5.70;;;2.05;;
77520;SDS011;66633;47.628;19.158;2023-03-11T11:13:56;6.93;;;3.17;;
77520;SDS011;66633;47.628;19.158;2023-03-11T11:16:22;8.10;;;2.05;;
77520;SDS011;66633;47.628;19.158;2023-03-11T11:18:48;6.45;;;2.28;;
77520;SDS011;66633;47.628;19.158;2023-03-11T11:21:27;6.75;;;2.92;;
77520;SDS011;66633;47.628;19.158;2023-03-11T11:24:09;7.82;;;2.40;;
77520;SDS011;66633;47.628;19.158;2023-03-11T11:26:36;6.82;;;2.20;;
77520;SDS011;66633;47.628;19.158;2023-03-11T11:29:05;3.07;;;1.30;;
77520;SDS011;66633;47.628;19.158;2023-03-11T11:31:31;4.05;;;1.80;;
77520;SDS011;66633;47.628;19.158;2023-03-11T11:33:57;3.40;;;1.33;;
77520;SDS011;66633;47.628;19.158;2023-03-11T11:36:24;6.03;;;1.90;;
77520;SDS011;66633;47.628;19.158;2023-03-11T11:38:51;8.05;;;2.35;;
77520;SDS011;66633;47.628;19.158;2023-03-11T11:41:19;5.60;;;2.28;;
77520;SDS011;66633;47.628;19.158;2023-03-11T11:43:52;5.07;;;1.48;;
77520;SDS011;66633;47.628;19.158;2023-03-11T11:48:53;5.67;;;2.30;;
77520;SDS011;66633;47.628;19.158;2023-03-11T11:51:22;3.65;;;1.40;;
77520;SDS011;66633;47.628;19.158;2023-03-11T11:54:23;3.80;;;1.30;;
77520;SDS011;66633;47.628;19.158;2023-03-11T11:56:41;4.82;;;1.90;;
77520;SDS011;66633;47.628;19.158;2023-03-11T11:59:09;3.63;;;1.50;;
77520;SDS011;66633;47.628;19.158;2023-03-11T12:01:41;5.03;;;1.65;;
77520;SDS011;66633;47.628;19.158;2023-03-11T12:04:23;4.00;;;1.63;;
77520;SDS011;66633;47.628;19.158;2023-03-11T12:26:50;6.50;;;1.88;;
77520;SDS011;66633;47.628;19.158;2023-03-11T12:37:41;3.33;;;1.40;;
77520;SDS011;66633;47.628;19.158;2023-03-11T12:42:51;3.42;;;1.35;;
77520;SDS011;66633;47.628;19.158;2023-03-11T12:48:24;4.85;;;1.40;;
77520;SDS011;66633;47.628;19.158;2023-03-11T12:50:49;4.50;;;1.50;;
77520;SDS011;66633;47.628;19.158;2023-03-11T12:53:15;3.30;;;1.33;;
77520;SDS011;66633;47.628;19.158;2023-03-11T12:55:45;4.18;;;1.40;;
77520;SDS011;66633;47.628;19.158;2023-03-11T12:58:29;3.67;;;1.30;;
77520;SDS011;66633;47.628;19.158;2023-03-11T13:08:22;4.68;;;1.52;;
77520;SDS011;66633;47.628;19.158;2023-03-11T13:15:46;3.92;;;1.60;;
77520;SDS011;66633;47.628;19.158;2023-03-11T13:25:40;4.03;;;1.20;;
77520;SDS011;66633;47.628;19.158;2023-03-11T13:41:18;5.40;;;1.80;;
77520;SDS011;66633;47.628;19.158;2023-03-11T13:43:46;3.10;;;1.30;;
77520;SDS011;66633;47.628;19.158;2023-03-11T13:46:25;4.68;;;1.80;;
77520;SDS011;66633;47.628;19.158;2023-03-11T13:48:50;10.18;;;4.07;;
77520;SDS011;66633;47.628;19.158;2023-03-11T13:51:19;6.07;;;2.08;;
77520;SDS011;66633;47.628;19.158;2023-03-11T13:53:46;6.40;;;2.35;;
77520;SDS011;66633;47.628;19.158;2023-03-11T13:56:25;7.53;;;2.97;;
77520;SDS011;66633;47.628;19.158;2023-03-11T13:58:51;8.40;;;2.55;;
77520;SDS011;66633;47.628;19.158;2023-03-11T14:01:17;5.60;;;1.60;;
77520;SDS011;66633;47.628;19.158;2023-03-11T14:03:43;6.55;;;2.63;;
77520;SDS011;66633;47.628;19.158;2023-03-11T14:06:13;5.20;;;2.03;;
77520;SDS011;66633;47.628;19.158;2023-03-11T14:08:39;5.93;;;2.65;;
77520;SDS011;66633;47.628;19.158;2023-03-11T14:13:39;5.93;;;2.88;;
77520;SDS011;66633;47.628;19.158;2023-03-11T14:19:34;5.68;;;2.08;;
77520;SDS011;66633;47.628;19.158;2023-03-11T14:21:36;7.85;;;3.10;;
77520;SDS011;66633;47.628;19.158;2023-03-11T14:24:05;5.35;;;2.15;;
77520;SDS011;66633;47.628;19.158;2023-03-11T14:26:31;5.53;;;1.60;;
77520;SDS011;66633;47.628;19.158;2023-03-11T14:29:00;7.55;;;3.17;;
77520;SDS011;66633;47.628;19.158;2023-03-11T14:31:30;7.15;;;3.33;;
77520;SDS011;66633;47.628;19.158;2023-03-11T14:36:22;6.20;;;2.15;;
77520;SDS011;66633;47.628;19.158;2023-03-11T14:38:47;4.15;;;1.50;;
77520;SDS011;66633;47.628;19.158;2023-03-11T14:41:13;5.43;;;2.13;;
77520;SDS011;66633;47.628;19.158;2023-03-11T14:43:40;9.77;;;3.58;;
77520;SDS011;66633;47.628;19.158;2023-03-11T14:46:07;6.82;;;3.10;;
77520;SDS011;66633;47.628;19.158;2023-03-11T14:48:39;6.82;;;2.92;;
77520;SDS011;66633;47.628;19.158;2023-03-11T14:51:13;8.90;;;4.00;;
77520;SDS011;66633;47.628;19.158;2023-03-11T14:56:05;6.55;;;2.55;;
77520;SDS011;66633;47.628;19.158;2023-03-11T14:58:33;7.68;;;2.30;;
77520;SDS011;66633;47.628;19.158;2023-03-11T15:03:28;5.70;;;1.92;;
77520;SDS011;66633;47.628;19.158;2023-03-11T15:06:01;5.50;;;2.35;;
77520;SDS011;66633;47.628;19.158;2023-03-11T15:08:29;5.05;;;2.20;;
77520;SDS011;66633;47.628;19.158;2023-03-11T15:11:03;8.07;;;2.67;;
77520;SDS011;66633;47.628;19.158;2023-03-11T15:13:29;5.28;;;2.10;;
77520;SDS011;66633;47.628;19.158;2023-03-11T15:15:57;6.35;;;2.40;;
77520;SDS011;66633;47.628;19.158;2023-03-11T15:18:24;7.43;;;3.00;;
77520;SDS011;66633;47.628;19.158;2023-03-11T15:21:26;8.10;;;2.70;;
77520;SDS011;66633;47.628;19.158;2023-03-11T15:23:45;5.35;;;2.20;;
77520;SDS011;66633;47.628;19.158;2023-03-11T15:26:19;6.50;;;2.42;;
77520;SDS011;66633;47.628;19.158;2023-03-11T15:28:45;5.60;;;2.30;;
77520;SDS011;66633;47.628;19.158;2023-03-11T15:33:42;7.27;;;3.00;;
77520;SDS011;66633;47.628;19.158;2023-03-11T15:41:37;6.78;;;2.72;;
77520;SDS011;66633;47.628;19.158;2023-03-11T15:44:02;5.20;;;2.17;;
77520;SDS011;66633;47.628;19.158;2023-03-11T15:46:32;6.03;;;2.22;;
77520;SDS011;66633;47.628;19.158;2023-03-11T15:48:58;8.68;;;2.92;;
77520;SDS011;66633;47.628;19.158;2023-03-11T15:51:23;6.60;;;2.72;;
77520;SDS011;66633;47.628;19.158;2023-03-11T15:53:49;6.63;;;2.63;;
77520;SDS011;66633;47.628;19.158;2023-03-11T15:56:18;7.30;;;3.42;;
77520;SDS011;66633;47.628;19.158;2023-03-11T15:58:45;7.80;;;3.13;;
77520;SDS011;66633;47.628;19.158;2023-03-11T16:01:10;5.50;;;2.23;;
77520;SDS011;66633;47.628;19.158;2023-03-11T16:03:35;7.00;;;2.77;;
77520;SDS011;66633;47.628;19.158;2023-03-11T16:06:02;6.32;;;2.78;;
77520;SDS011;66633;47.628;19.158;2023-03-11T16:08:28;7.22;;;2.67;;
77520;SDS011;66633;47.628;19.158;2023-03-11T16:10:53;8.55;;;3.25;;
77520;SDS011;66633;47.628;19.158;2023-03-11T16:13:19;6.60;;;2.33;;
77520;SDS011;66633;47.628;19.158;2023-03-11T16:15:44;7.82;;;3.28;;
77520;SDS011;66633;47.628;19.158;2023-03-11T16:18:11;4.97;;;2.38;;
77520;SDS011;66633;47.628;19.158;2023-03-11T16:23:05;6.03;;;2.33;;
77520;SDS011;66633;47.628;19.158;2023-03-11T16:25:37;6.80;;;2.60;;
77520;SDS011;66633;47.628;19.158;2023-03-11T16:28:04;5.07;;;2.17;;
77520;SDS011;66633;47.628;19.158;2023-03-11T16:30:30;5.28;;;2.20;;
77520;SDS011;66633;47.628;19.158;2023-03-11T16:32:56;12.35;;;2.47;;